createdAt,value
2023-05-10T00:00:03.296Z,15.60
2023-05-10T00:02:30.160Z,15.60
2023-05-10T00:04:57.080Z,15.60
2023-05-10T00:07:23.824Z,15.60
2023-05-10T00:09:50.521Z,15.60
2023-05-10T00:12:17.220Z,15.60
2023-05-10T00:14:43.982Z,15.60
2023-05-10T00:17:10.715Z,15.60
2023-05-10T00:19:37.464Z,15.50
2023-05-10T00:22:04.271Z,15.50
2023-05-10T00:24:31.016Z,15.50
2023-05-10T00:26:57.753Z,15.40
2023-05-10T00:29:25.027Z,15.40
2023-05-10T00:31:51.918Z,15.40
2023-05-10T00:34:18.716Z,15.40
2023-05-10T00:36:45.441Z,15.40
2023-05-10T00:39:12.158Z,15.30
2023-05-10T00:41:39.021Z,15.30
2023-05-10T00:44:05.830Z,15.30
2023-05-10T00:46:32.785Z,15.30
2023-05-10T00:48:59.497Z,15.30
2023-05-10T00:51:26.303Z,15.30
2023-05-10T00:53:53.088Z,15.30
2023-05-10T00:56:21.508Z,15.30
2023-05-10T00:58:48.261Z,15.30
2023-05-10T01:01:15.290Z,15.30
2023-05-10T01:03:42.577Z,15.30
2023-05-10T01:06:10.971Z,15.30
2023-05-10T01:08:37.850Z,15.30
2023-05-10T01:11:04.570Z,15.30
2023-05-10T01:13:34.560Z,15.30
2023-05-10T01:16:03.392Z,15.30
2023-05-10T01:18:39.100Z,15.30
2023-05-10T01:21:33.367Z,15.30
2023-05-10T01:24:28.115Z,15.20
2023-05-10T01:27:15.782Z,15.20
2023-05-10T01:32:57.424Z,15.20
2023-05-10T01:37:34.983Z,15.10
2023-05-10T01:40:02.777Z,15.70
2023-05-10T01:42:34.651Z,15.10
2023-05-10T01:45:08.961Z,15.10
2023-05-10T01:47:41.461Z,15.10
2023-05-10T01:52:33.520Z,15.10
2023-05-10T01:55:07.569Z,15.10
2023-05-10T01:59:41.592Z,15.00
2023-05-10T02:02:08.648Z,15.00
2023-05-10T02:04:36.471Z,15.00
2023-05-10T02:07:50.420Z,15.00
2023-05-10T02:10:17.502Z,15.00
2023-05-10T02:12:45.939Z,15.00
2023-05-10T02:15:13.364Z,15.00
2023-05-10T02:17:40.159Z,15.00
2023-05-10T02:20:07.769Z,15.00
2023-05-10T02:22:34.536Z,15.00
2023-05-10T02:25:01.242Z,15.00
2023-05-10T02:27:28.747Z,15.00
2023-05-10T02:29:55.512Z,15.00
2023-05-10T02:32:23.114Z,15.00
2023-05-10T02:34:52.861Z,15.00
2023-05-10T02:37:22.673Z,15.00
2023-05-10T02:39:50.163Z,15.00
2023-05-10T02:42:20.816Z,15.00
2023-05-10T02:44:48.914Z,15.00
2023-05-10T02:47:15.719Z,15.00
2023-05-10T02:49:42.535Z,14.90
2023-05-10T02:53:36.647Z,14.90
2023-05-10T02:56:08.137Z,14.90
2023-05-10T02:58:34.842Z,14.90
2023-05-10T03:01:01.724Z,14.90
2023-05-10T03:07:49.164Z,14.90
2023-05-10T03:10:16.146Z,14.80
2023-05-10T03:12:45.941Z,14.80
2023-05-10T03:15:31.280Z,14.80
2023-05-10T03:18:03.106Z,14.80
2023-05-10T03:20:44.872Z,14.80
2023-05-10T03:23:20.516Z,14.80
2023-05-10T03:25:47.946Z,14.80
2023-05-10T03:28:14.757Z,14.80
2023-05-10T03:30:42.694Z,14.80
2023-05-10T03:33:09.551Z,14.80
2023-05-10T03:35:36.335Z,14.80
2023-05-10T03:38:03.156Z,14.80
2023-05-10T03:40:30.015Z,14.80
2023-05-10T03:42:56.755Z,14.80
2023-05-10T03:45:23.584Z,14.80
2023-05-10T03:47:50.337Z,14.80
2023-05-10T03:50:17.388Z,14.80
2023-05-10T03:52:44.613Z,14.80
2023-05-10T03:55:11.474Z,14.80
2023-05-10T03:57:38.297Z,14.80
2023-05-10T04:00:05.542Z,14.80
2023-05-10T04:02:32.342Z,14.80
2023-05-10T04:04:59.165Z,14.80
2023-05-10T04:07:25.886Z,14.90
2023-05-10T04:11:53.078Z,14.90
2023-05-10T04:14:19.879Z,14.90
2023-05-10T04:16:46.649Z,14.90
2023-05-10T04:19:13.450Z,14.90
2023-05-10T04:21:40.141Z,14.90
2023-05-10T04:24:07.025Z,14.90
2023-05-10T04:26:33.719Z,14.90
2023-05-10T04:29:00.553Z,15.00
2023-05-10T04:31:28.784Z,14.90
2023-05-10T04:33:55.579Z,14.90
2023-05-10T04:36:22.514Z,14.90
2023-05-10T04:38:49.417Z,14.80
2023-05-10T04:41:16.146Z,14.80
2023-05-10T04:43:42.911Z,14.80
2023-05-10T04:46:09.707Z,14.80
2023-05-10T04:48:36.511Z,14.80
2023-05-10T04:51:04.944Z,14.80
2023-05-10T04:53:31.875Z,14.80
2023-05-10T04:55:58.575Z,14.70
2023-05-10T04:58:25.285Z,14.70
2023-05-10T05:00:51.983Z,14.70
2023-05-10T05:03:18.850Z,14.70
2023-05-10T05:05:46.022Z,14.70
2023-05-10T05:08:12.881Z,14.70
2023-05-10T05:10:39.629Z,14.70
2023-05-10T05:13:06.635Z,14.70
2023-05-10T05:15:33.454Z,14.70
2023-05-10T05:18:00.460Z,14.70
2023-05-10T05:20:27.249Z,14.70
2023-05-10T05:22:54.057Z,14.70
2023-05-10T05:25:20.916Z,14.70
2023-05-10T05:27:47.629Z,14.70
2023-05-10T05:31:31.705Z,14.70
2023-05-10T05:33:58.506Z,14.70
2023-05-10T05:36:25.498Z,14.70
2023-05-10T05:38:52.220Z,14.70
2023-05-10T05:41:18.947Z,14.70
2023-05-10T05:43:45.758Z,14.60
2023-05-10T05:46:12.547Z,14.60
2023-05-10T05:48:39.352Z,14.60
2023-05-10T05:51:07.426Z,14.60
2023-05-10T05:53:34.323Z,14.60
2023-05-10T05:56:01.086Z,14.60
2023-05-10T05:58:27.942Z,14.60
2023-05-10T06:00:55.028Z,14.60
2023-05-10T06:03:21.918Z,14.60
2023-05-10T06:05:48.796Z,14.60
2023-05-10T06:08:15.607Z,14.60
2023-05-10T06:10:42.342Z,14.60
2023-05-10T06:13:57.893Z,14.60
2023-05-10T06:16:24.635Z,14.60
2023-05-10T06:18:52.082Z,14.60
2023-05-10T06:21:18.964Z,14.60
2023-05-10T06:23:45.791Z,14.60
2023-05-10T06:28:14.342Z,14.50
2023-05-10T06:30:41.045Z,14.50
2023-05-10T06:33:07.866Z,14.50
2023-05-10T06:35:34.707Z,14.50
2023-05-10T06:38:01.573Z,14.50
2023-05-10T06:40:28.415Z,14.40
2023-05-10T06:42:55.136Z,14.50
2023-05-10T06:45:22.291Z,14.50
2023-05-10T06:47:49.061Z,14.60
2023-05-10T06:51:47.734Z,14.80
2023-05-10T06:54:14.664Z,14.80
2023-05-10T06:56:41.420Z,14.80
2023-05-10T06:59:08.370Z,14.80
2023-05-10T07:01:35.142Z,14.80
2023-05-10T07:04:01.934Z,14.80
2023-05-10T07:06:33.442Z,14.80
2023-05-10T07:09:01.368Z,14.70
2023-05-10T07:11:45.151Z,14.70
2023-05-10T07:14:11.872Z,14.70
2023-05-10T07:16:38.779Z,14.70
2023-05-10T07:19:06.379Z,14.80
2023-05-10T07:21:33.266Z,14.80
2023-05-10T07:24:01.233Z,14.90
2023-05-10T07:26:27.975Z,15.10
2023-05-10T07:28:54.690Z,15.40
2023-05-10T07:31:21.374Z,15.60
2023-05-10T07:33:48.243Z,16.00
2023-05-10T07:36:15.529Z,16.30
2023-05-10T07:38:42.325Z,16.40
2023-05-10T07:41:09.086Z,16.60
2023-05-10T07:43:35.820Z,16.70
2023-05-10T07:46:02.632Z,16.80
2023-05-10T07:48:29.399Z,16.90
2023-05-10T07:50:56.121Z,17.00
2023-05-10T07:53:22.942Z,17.00
2023-05-10T07:55:53.489Z,17.10
2023-05-10T07:58:20.569Z,17.20
2023-05-10T08:00:47.332Z,17.30
2023-05-10T08:03:14.447Z,17.50
2023-05-10T08:05:41.675Z,17.70
2023-05-10T08:08:08.475Z,17.90
2023-05-10T08:10:35.308Z,18.10
2023-05-10T08:13:02.028Z,18.20
2023-05-10T08:15:28.725Z,18.20
2023-05-10T08:17:55.492Z,18.40
2023-05-10T08:20:22.384Z,18.40
2023-05-10T08:22:51.736Z,18.30
2023-05-10T08:25:18.984Z,18.30
2023-05-10T08:27:45.829Z,18.30
2023-05-10T08:30:13.975Z,18.20
2023-05-10T08:32:40.831Z,18.10
2023-05-10T08:35:07.723Z,18.00
2023-05-10T08:37:34.408Z,17.90
2023-05-10T08:40:01.214Z,17.70
2023-05-10T08:42:29.675Z,17.70
2023-05-10T08:44:56.462Z,17.70
2023-05-10T08:47:23.348Z,17.80
2023-05-10T08:49:52.076Z,17.90
2023-05-10T08:52:19.037Z,18.10
2023-05-10T08:54:45.857Z,18.30
2023-05-10T08:57:12.670Z,18.30
2023-05-10T08:59:40.787Z,18.30
2023-05-10T09:02:07.632Z,18.30
2023-05-10T09:04:34.424Z,18.10
2023-05-10T09:07:01.360Z,18.10
2023-05-10T09:09:28.085Z,18.00
2023-05-10T09:11:55.258Z,18.00
2023-05-10T09:14:22.059Z,18.00
2023-05-10T09:16:48.864Z,17.90
2023-05-10T09:19:15.829Z,17.90
2023-05-10T09:21:42.663Z,17.90
2023-05-10T09:24:09.736Z,18.10
2023-05-10T09:26:37.220Z,18.40
2023-05-10T09:29:04.077Z,18.50
2023-05-10T09:31:55.588Z,18.40
2023-05-10T09:34:32.603Z,18.20
2023-05-10T09:37:07.227Z,17.90
2023-05-10T09:39:40.326Z,17.70
2023-05-10T09:42:08.529Z,17.60
2023-05-10T09:44:35.732Z,17.60
2023-05-10T09:47:02.953Z,17.70
2023-05-10T09:49:29.780Z,17.80
2023-05-10T09:52:05.602Z,18.00
2023-05-10T09:54:32.824Z,18.30
2023-05-10T09:56:59.598Z,19.10
2023-05-10T09:59:28.214Z,19.20
2023-05-10T10:01:57.766Z,19.60
2023-05-10T10:04:24.636Z,19.90
2023-05-10T10:07:04.778Z,20.20
2023-05-10T10:09:31.965Z,20.40
2023-05-10T10:11:58.683Z,20.50
2023-05-10T10:14:25.619Z,20.70
2023-05-10T10:17:05.767Z,20.80
2023-05-10T10:19:36.272Z,21.10
2023-05-10T10:22:03.833Z,21.20
2023-05-10T10:24:30.788Z,21.50
2023-05-10T10:27:03.247Z,21.80
2023-05-10T10:29:45.478Z,22.30
2023-05-10T10:32:36.893Z,22.40
2023-05-10T10:35:03.915Z,22.40
2023-05-10T10:37:47.446Z,22.40
2023-05-10T10:40:34.791Z,22.10
2023-05-10T10:43:23.988Z,21.90
2023-05-10T10:46:18.291Z,21.90
2023-05-10T10:48:49.407Z,22.10
2023-05-10T10:51:16.188Z,22.20
2023-05-10T10:53:42.945Z,22.10
2023-05-10T10:56:14.627Z,21.80
2023-05-10T10:58:41.886Z,21.50
2023-05-10T11:01:18.281Z,21.00
2023-05-10T11:04:00.318Z,20.60
2023-05-10T11:06:34.481Z,20.30
2023-05-10T11:09:12.226Z,20.10
2023-05-10T11:11:59.136Z,19.90
2023-05-10T11:14:25.948Z,19.90
2023-05-10T11:16:52.789Z,19.80
2023-05-10T11:19:20.051Z,19.90
2023-05-10T11:21:51.465Z,19.90
2023-05-10T11:24:20.612Z,20.00
2023-05-10T11:26:47.494Z,20.10
2023-05-10T11:29:14.685Z,20.30
2023-05-10T11:31:46.012Z,20.50
2023-05-10T11:34:13.671Z,20.90
2023-05-10T11:36:40.421Z,21.30
2023-05-10T11:39:07.335Z,21.60
2023-05-10T11:41:34.182Z,21.80
2023-05-10T11:44:00.998Z,21.80
2023-05-10T11:46:28.650Z,21.90
2023-05-10T11:49:02.601Z,21.90
2023-05-10T11:51:29.347Z,22.00
2023-05-10T11:53:57.359Z,22.20
2023-05-10T11:56:24.618Z,22.30
2023-05-10T11:58:58.260Z,22.50
2023-05-10T12:01:28.289Z,22.70
2023-05-10T12:03:56.475Z,22.80
2023-05-10T12:06:23.299Z,22.60
2023-05-10T12:08:54.554Z,22.60
2023-05-10T12:11:22.780Z,22.50
2023-05-10T12:13:50.822Z,22.20
2023-05-10T12:16:21.817Z,22.10
2023-05-10T12:18:56.277Z,21.80
2023-05-10T12:21:23.059Z,21.30
2023-05-10T12:23:51.396Z,20.90
2023-05-10T12:26:18.205Z,20.40
2023-05-10T12:28:45.352Z,20.10
2023-05-10T12:31:12.197Z,19.80
2023-05-10T12:33:46.317Z,19.60
2023-05-10T12:36:16.804Z,19.40
2023-05-10T12:38:44.539Z,19.30
2023-05-10T12:41:15.545Z,19.30
2023-05-10T12:43:42.271Z,19.40
2023-05-10T12:46:13.883Z,19.40
2023-05-10T12:48:41.604Z,19.50
2023-05-10T12:51:13.879Z,19.70
2023-05-10T12:53:42.561Z,19.90
2023-05-10T12:56:11.089Z,20.20
2023-05-10T12:58:37.828Z,20.40
2023-05-10T13:01:05.820Z,20.60
2023-05-10T13:03:32.717Z,20.70
2023-05-10T13:05:59.532Z,20.70
2023-05-10T13:08:26.382Z,20.60
2023-05-10T13:10:53.225Z,20.60
2023-05-10T13:13:20.013Z,20.50
2023-05-10T13:15:46.726Z,20.40
2023-05-10T13:18:13.446Z,20.30
2023-05-10T13:20:40.350Z,20.30
2023-05-10T13:23:07.135Z,20.20
2023-05-10T13:25:35.324Z,20.20
2023-05-10T13:28:02.223Z,20.20
2023-05-10T13:30:29.790Z,20.20
2023-05-10T13:32:56.539Z,20.10
2023-05-10T13:35:23.455Z,20.10
2023-05-10T13:37:50.298Z,20.00
2023-05-10T13:40:17.904Z,20.00
2023-05-10T13:42:44.874Z,20.00
2023-05-10T13:45:31.235Z,20.00
2023-05-10T13:47:59.019Z,20.00
2023-05-10T13:50:25.839Z,20.00
2023-05-10T13:52:52.550Z,19.90
2023-05-10T13:55:19.569Z,19.90
2023-05-10T13:57:46.597Z,19.90
2023-05-10T14:00:13.961Z,20.00
2023-05-10T14:02:41.485Z,20.00
2023-05-10T14:05:08.607Z,20.00
2023-05-10T14:07:35.476Z,20.00
2023-05-10T14:10:02.426Z,19.90
2023-05-10T14:12:29.177Z,19.90
2023-05-10T14:14:55.926Z,19.80
2023-05-10T14:17:23.316Z,19.60
2023-05-10T14:19:50.035Z,19.40
2023-05-10T14:22:16.740Z,19.20
2023-05-10T14:24:47.607Z,19.00
2023-05-10T14:27:14.549Z,18.80
2023-05-10T14:29:41.289Z,18.60
2023-05-10T14:32:08.084Z,18.40
2023-05-10T14:34:34.860Z,18.20
2023-05-10T14:37:02.183Z,17.90
2023-05-10T14:39:30.792Z,17.70
2023-05-10T14:41:57.877Z,17.60
2023-05-10T14:44:24.797Z,17.40
2023-05-10T14:46:51.814Z,17.30
2023-05-10T14:49:18.551Z,17.10
2023-05-10T14:51:46.597Z,17.00
2023-05-10T14:54:13.331Z,16.80
2023-05-10T14:56:40.240Z,16.70
2023-05-10T14:59:06.985Z,16.60
2023-05-10T15:01:36.390Z,16.60
2023-05-10T15:04:04.103Z,16.70
2023-05-10T15:06:32.524Z,16.60
2023-05-10T15:08:59.254Z,16.60
2023-05-10T15:11:26.313Z,16.60
2023-05-10T15:13:53.025Z,16.60
2023-05-10T15:16:19.898Z,16.60
2023-05-10T15:18:46.645Z,16.60
2023-05-10T15:21:13.639Z,16.60
2023-05-10T15:23:40.377Z,16.60
2023-05-10T15:26:07.179Z,16.60
2023-05-10T15:28:34.499Z,16.60
2023-05-10T15:31:01.455Z,16.60
2023-05-10T15:33:28.531Z,16.50
2023-05-10T15:35:55.382Z,16.50
2023-05-10T15:38:22.409Z,16.40
2023-05-10T15:40:49.189Z,16.20
2023-05-10T15:43:16.257Z,16.20
2023-05-10T15:45:42.989Z,16.10
2023-05-10T15:48:09.867Z,16.10
2023-05-10T15:50:36.728Z,16.00
2023-05-10T15:53:03.436Z,16.00
2023-05-10T15:55:30.256Z,16.00
2023-05-10T15:57:56.975Z,16.00
2023-05-10T16:00:23.749Z,16.00
2023-05-10T16:02:53.383Z,15.90
2023-05-10T16:05:20.425Z,15.80
2023-05-10T16:07:47.660Z,15.70
2023-05-10T16:10:14.372Z,15.60
2023-05-10T16:12:41.360Z,15.60
2023-05-10T16:15:08.985Z,15.50
2023-05-10T16:17:35.819Z,15.50
2023-05-10T16:20:49.497Z,15.30
2023-05-10T16:23:16.322Z,15.20
2023-05-10T16:25:43.034Z,15.20
2023-05-10T16:29:48.038Z,15.10
2023-05-10T16:32:14.850Z,15.10
2023-05-10T16:34:41.730Z,15.10
2023-05-10T16:37:08.563Z,15.00
2023-05-10T16:39:35.422Z,15.00
2023-05-10T16:42:02.179Z,15.00
2023-05-10T16:44:29.009Z,15.00
2023-05-10T16:46:56.036Z,15.00
2023-05-10T16:49:24.447Z,15.00
2023-05-10T16:51:52.681Z,14.90
2023-05-10T16:54:20.762Z,14.80
2023-05-10T16:56:47.704Z,14.80
2023-05-10T16:59:14.411Z,14.80
2023-05-10T17:01:41.188Z,14.80
2023-05-10T17:04:08.360Z,14.80
2023-05-10T17:06:36.877Z,14.80
2023-05-10T17:09:04.109Z,14.80
2023-05-10T17:11:31.221Z,14.70
2023-05-10T17:13:59.283Z,14.60
2023-05-10T17:16:26.091Z,14.60
2023-05-10T17:18:53.066Z,14.50
2023-05-10T17:21:19.914Z,14.50
2023-05-10T17:23:46.784Z,14.40
2023-05-10T17:26:13.511Z,14.40
2023-05-10T17:28:40.692Z,14.30
2023-05-10T17:31:07.634Z,14.30
2023-05-10T17:33:34.617Z,14.30
2023-05-10T17:36:01.363Z,14.30
2023-05-10T17:38:28.189Z,14.20
2023-05-10T17:40:54.927Z,14.20
2023-05-10T17:43:21.769Z,14.10
2023-05-10T17:45:49.548Z,14.00
2023-05-10T17:48:16.368Z,14.00
2023-05-10T17:50:43.490Z,14.00
2023-05-10T17:53:10.551Z,14.00
2023-05-10T17:56:34.845Z,13.90
2023-05-10T17:59:02.258Z,13.90
2023-05-10T18:03:40.155Z,13.90
2023-05-10T18:06:07.227Z,13.90
2023-05-10T18:11:01.257Z,13.80
2023-05-10T18:13:28.070Z,13.80
2023-05-10T18:15:54.823Z,13.80
2023-05-10T18:18:21.551Z,13.80
2023-05-10T18:20:49.364Z,13.80
2023-05-10T18:24:44.800Z,13.70
2023-05-10T18:27:12.112Z,13.70
2023-05-10T18:29:39.361Z,13.70
2023-05-10T18:32:06.578Z,13.70
2023-05-10T18:34:33.441Z,13.60
2023-05-10T18:39:02.935Z,13.60
2023-05-10T18:41:29.703Z,13.60
2023-05-10T18:43:56.537Z,13.50
2023-05-10T18:47:46.694Z,13.50
2023-05-10T18:52:47.053Z,13.40
2023-05-10T18:55:14.222Z,13.40
2023-05-10T18:58:02.810Z,13.40
2023-05-10T19:00:29.674Z,13.40
2023-05-10T19:04:05.246Z,13.40
2023-05-10T19:09:06.971Z,13.40
2023-05-10T19:11:34.496Z,13.40
2023-05-10T19:14:01.972Z,13.40
2023-05-10T19:16:29.967Z,13.30
2023-05-10T19:18:57.625Z,13.30
2023-05-10T19:22:35.986Z,13.30
2023-05-10T19:26:41.072Z,13.30
2023-05-10T19:31:46.158Z,13.30
2023-05-10T19:36:21.375Z,13.20
2023-05-10T19:39:45.303Z,13.20
2023-05-10T19:42:12.313Z,13.20
2023-05-10T19:45:08.381Z,13.20
2023-05-10T19:47:36.343Z,13.10
2023-05-10T19:50:47.148Z,13.10
2023-05-10T19:53:14.016Z,13.10
2023-05-10T19:58:21.065Z,13.00
2023-05-10T20:00:47.872Z,13.00
2023-05-10T20:04:42.017Z,13.00
2023-05-10T20:07:08.841Z,13.00
2023-05-10T20:13:02.382Z,12.90
2023-05-10T20:15:29.265Z,12.90
2023-05-10T20:19:02.066Z,12.90
2023-05-10T20:21:28.819Z,12.90
2023-05-10T20:23:55.679Z,12.90
2023-05-10T20:26:22.447Z,12.90
2023-05-10T20:35:53.512Z,12.80
2023-05-10T20:38:21.043Z,12.80
2023-05-10T20:43:15.260Z,12.70
2023-05-10T20:45:42.039Z,12.70
2023-05-10T20:48:09.601Z,12.70
2023-05-10T20:52:37.494Z,12.60
2023-05-10T20:57:53.846Z,12.60
2023-05-10T21:00:21.026Z,12.60
2023-05-10T21:05:41.944Z,12.60
2023-05-10T21:17:35.197Z,12.60
2023-05-10T21:20:02.024Z,12.60
2023-05-10T21:22:28.736Z,12.60
2023-05-10T21:25:19.813Z,12.60
2023-05-10T21:29:07.632Z,12.50
2023-05-10T21:35:44.739Z,12.50
2023-05-10T21:40:56.817Z,12.50
2023-05-10T21:43:23.557Z,12.50
2023-05-10T21:45:50.331Z,12.40
2023-05-10T21:48:17.309Z,12.40
2023-05-10T21:53:08.112Z,12.40
2023-05-10T22:00:35.950Z,12.30
2023-05-10T22:04:18.854Z,12.30
2023-05-10T22:06:45.654Z,12.30
2023-05-10T22:09:12.400Z,12.30
2023-05-10T22:11:39.127Z,12.30
2023-05-10T22:14:05.927Z,12.20
2023-05-10T22:16:32.742Z,12.30
2023-05-10T22:24:32.457Z,12.20
2023-05-10T22:26:59.279Z,12.30
2023-05-10T22:29:26.083Z,12.30
2023-05-10T22:32:18.575Z,12.20
2023-05-10T22:36:56.655Z,12.20
2023-05-10T22:42:29.212Z,12.10
2023-05-10T22:45:15.448Z,12.10
2023-05-10T22:48:48.329Z,12.10
2023-05-10T22:52:27.624Z,12.10
2023-05-10T22:55:17.818Z,12.10
2023-05-10T22:57:44.591Z,12.10
2023-05-10T23:00:11.707Z,12.10
2023-05-10T23:03:13.562Z,12.10
2023-05-10T23:08:20.276Z,12.00
2023-05-10T23:10:47.005Z,12.00
2023-05-10T23:17:23.492Z,12.00
2023-05-10T23:20:18.806Z,12.00
2023-05-10T23:25:25.156Z,12.00
2023-05-10T23:27:52.031Z,12.00
2023-05-10T23:34:35.247Z,11.90
2023-05-10T23:37:02.378Z,11.90
2023-05-10T23:39:29.157Z,11.90
2023-05-10T23:45:17.167Z,12.00
2023-05-10T23:47:43.980Z,12.00
2023-05-10T23:50:58.396Z,12.00
2023-05-10T23:53:25.154Z,11.90
2023-05-10T23:59:09.833Z,11.90
